Skip to content.

North Canterbury

  

Burnham - BUR

Logged in to unit HSN11443 as: Guest
(Last data received Sun 18 Feb 2018 10:05:00 - 22 minutes ago)

All FWI Graphs Hourly FWI Daily FWI Download FWI Data

Hourly FWI Logs | Period From 10:05 17/02/2018 to 10:05 18/02/2018

Change the DoC% for the 24hr period starting 12:00pm 17/2/2018 to

If the date above is the current day, then all future logs will inherit this value until such time as it is changed again. If you wish to change historic values you can do so by going back to the day you want to alter (navigate via the graphs) and change the DoC% there (however this will only affect that day).

WindRainHourly FWIsDaily FWIsForestGrassScrub
DateTime (NZST)Temp (C)RH (%)Dir (deg)Speed (km/h)Hourly (mm)Daily (mm)FFMCISIHFWIFFMCDMCDCISIBUIFWIDSRROS (m/h)FFI (kW/m)FFDCDoC (%)ROS (m/h)GFI (kW/m)GFDCROS (m/h)SFI (kW/m)SFDC
18/02/2018 0900 19.1 78.5 47 15.1 0.0 76.6 1.8 4.8 46 169 M 30 0 0 L 331 3310 V
18/02/2018 0800 17.4 86.8 33 10.8 0.0 76.0 1.4 3.7 30 113 M 30 0 0 L 233 2330 V
18/02/2018 0700 15.6 93.8 22 11.5 0.0 75.8 1.4 3.8 32 117 M 30 0 0 L 241 2408 V
18/02/2018 0600 14.9 95.1 46 8.6 0.2 75.8 1.2 3.2 25 93 M 30 0 0 L 196 1965 H
18/02/2018 0500 15.1 93.6 32 9.4 0.0 80.2 1.9 5.0 48 178 M 30 0 0 L 345 3452 V
18/02/2018 0400 15.5 92.0 46 11.2 0.0 80.6 2.1 5.7 59 221 M 30 0 0 L 416 4158 E
18/02/2018 0300 15.6 92.9 36 11.2 0.0 81.0 2.2 5.9 63 235 M 30 0 0 L 440 4398 E
18/02/2018 0200 14.7 92.2 24 10.1 0.0 81.5 2.2 6.0 64 237 M 30 0 0 L 443 4429 E
18/02/2018 0100 14.9 93.0 22 10.1 0.0 82.1 2.4 6.3 71 262 M 30 0 0 L 483 4826 E
18/02/2018 0000 14.8 92.4 7 9.0 0.0 82.8 2.5 6.5 74 275 M 30 0 0 L 503 5034 E
17/02/2018 2300 15.2 91.5 21 6.8 0.0 83.5 2.4 6.4 73 270 M 30 0 0 L 495 4949 E
17/02/2018 2200 14.3 90.7 323 4.3 0.0 84.3 2.4 6.3 70 259 M 30 0 0 L 478 4782 E
17/02/2018 2100 15.1 87.0 344 5.8 0.0 85.0 2.8 7.4 91 340 M 30 0 0 L 603 6028 E
17/02/2018 2000 16.4 82.1 250 7.6 0.0 85.7 3.4 8.7 121 448 M 30 0 0 L 764 7641 E
17/02/2018 1900 19.8 70.1 173 7.9 0.0 86.3 3.8 9.5 139 518 H 30 0 0 L 863 8633 E
17/02/2018 1800 21.0 65.3 178 8.3 0.0 86.4 3.9 9.8 148 549 H 30 0 0 L 907 9074 E
17/02/2018 1700 20.8 67.3 161 13.0 0.0 86.5 5.0 11.9 207 767 H 30 0 0 L 1203 12030 E
17/02/2018 1600 20.2 73.7 147 21.2 0.0 86.5 7.6 16.6 363 1347 H 30 0 0 L 1914 19138 E
17/02/2018 1500 20.4 73.3 179 22.7 0.0 86.9 8.7 18.3 424 1574 H 30 0 0 L 2169 21695 E
17/02/2018 1400 23.4 65.3 205 20.9 0.0 87.4 8.5 18.0 412 1531 H 30 0 0 L 2121 21213 E
17/02/2018 1300 23.4 64.6 213 18.7 0.0 87.5 7.7 16.8 370 1373 H 30 0 0 L 1944 19440 E
17/02/2018 1200 25.0 50.5 218 7.9 0.0 0.0 87.7 4.6 11.2 90.0 25.8 274.3 6.4 41.8 14.6 3.1 184 685 H 30 0 0 L 1094 10939 E
17/02/2018 1100 24.6 50.4 351 3.6 0.0 87.6 3.6 8.7 130 408 M 30 0 0 L 829 8292 E
17/02/2018 1000 22.7 53.9 3 12.2 0.0 87.5 5.6 12.4 236 744 H 30 0 0 L 1374 13739 E